Terminal Aerodrome Forecast
Issued by NWS

Home | Current Version | Previous Version | Text Only | Print | Product List | Glossary On
Versions: 1 2 3 4 5 6 7 8 9 10 11 12 13 14 15 16 17 18 19
857
FTAK31 PAJN 171730
TAFAYA
TAF
PAYA 171730Z 1718/1818 10006KT 4SM -SHRA VCTS FEW006 SCT015CB
      OVC040
     FM172200 12005KT 6SM -SHRA BKN025 OVC040
     FM180300 VRB03KT P6SM -SHRA SCT025 OVC050
      AMD LTD TO CLD VIS AND WIND=

USA.gov is the U.S. government's official web portal to all federal, state and local government web resources and services.